createdAt,value
2018-06-29T00:00:47.150Z,69.10
2018-06-29T00:03:15.635Z,69.20
2018-06-29T00:05:44.044Z,69.70
2018-06-29T00:08:12.479Z,70.00
2018-06-29T00:10:40.904Z,70.50
2018-06-29T00:13:09.300Z,70.50
2018-06-29T00:15:37.771Z,71.10
2018-06-29T00:18:06.196Z,71.40
2018-06-29T00:20:34.631Z,71.70
2018-06-29T00:23:03.040Z,71.60
2018-06-29T00:25:31.499Z,71.60
2018-06-29T00:27:59.944Z,71.60
2018-06-29T00:30:28.366Z,71.50
2018-06-29T00:32:56.760Z,71.40
2018-06-29T00:35:25.196Z,71.50
2018-06-29T00:37:53.760Z,71.90
2018-06-29T00:40:22.149Z,72.00
2018-06-29T00:42:50.522Z,72.40
2018-06-29T00:45:18.974Z,72.70
2018-06-29T00:47:47.385Z,73.00
2018-06-29T00:50:15.806Z,72.90
2018-06-29T00:52:44.267Z,73.10
2018-06-29T00:55:12.754Z,73.70
2018-06-29T00:57:41.197Z,73.50
2018-06-29T01:00:09.612Z,73.80
2018-06-29T01:02:38.179Z,73.90
2018-06-29T01:05:06.620Z,74.10
2018-06-29T01:07:35.068Z,74.40
2018-06-29T01:10:03.551Z,74.50
2018-06-29T01:15:00.104Z,75.20
2018-06-29T01:17:28.603Z,75.50
2018-06-29T01:19:57.005Z,75.80
2018-06-29T01:22:25.475Z,75.90
2018-06-29T01:24:53.920Z,76.10
2018-06-29T01:29:50.373Z,76.50
2018-06-29T01:34:46.852Z,76.80
2018-06-29T01:37:15.264Z,77.30
2018-06-29T01:39:43.696Z,77.60
2018-06-29T01:42:12.099Z,77.90
2018-06-29T01:44:40.497Z,78.20
2018-06-29T01:47:08.981Z,78.20
2018-06-29T01:49:37.411Z,78.30
2018-06-29T01:52:06.048Z,78.40
2018-06-29T01:54:34.486Z,78.40
2018-06-29T01:57:02.911Z,78.60
2018-06-29T01:59:31.374Z,78.70
2018-06-29T02:01:59.794Z,79.00
2018-06-29T02:04:28.193Z,79.00
2018-06-29T02:06:56.582Z,79.00
2018-06-29T02:09:24.978Z,79.20
2018-06-29T02:11:53.409Z,79.50
2018-06-29T02:14:21.812Z,79.60
2018-06-29T02:16:50.235Z,80.20
2018-06-29T02:19:18.623Z,79.50
2018-06-29T02:21:47.072Z,79.60
2018-06-29T02:24:15.454Z,79.60
2018-06-29T02:26:43.948Z,79.70
2018-06-29T02:29:12.386Z,79.70
2018-06-29T02:31:40.801Z,79.80
2018-06-29T02:34:09.248Z,80.00
2018-06-29T02:36:37.656Z,80.10
2018-06-29T02:39:09.597Z,80.40
2018-06-29T02:41:37.999Z,80.40
2018-06-29T02:44:06.396Z,80.50
2018-06-29T02:46:34.810Z,80.50
2018-06-29T02:49:03.303Z,80.80
2018-06-29T02:51:31.727Z,81.00
2018-06-29T02:54:00.164Z,81.10
2018-06-29T02:56:28.608Z,81.20
2018-06-29T02:58:56.988Z,81.30
2018-06-29T03:01:25.371Z,81.40
2018-06-29T03:03:54.030Z,81.10
2018-06-29T03:06:22.490Z,81.60
2018-06-29T03:08:50.907Z,81.70
2018-06-29T03:11:19.344Z,81.80
2018-06-29T03:13:47.729Z,81.90
2018-06-29T03:16:16.143Z,81.80
2018-06-29T03:18:44.578Z,82.00
2018-06-29T03:21:12.984Z,82.30
2018-06-29T03:23:41.403Z,82.40
2018-06-29T03:26:09.965Z,82.40
2018-06-29T03:28:38.447Z,82.60
2018-06-29T03:31:06.903Z,82.90
2018-06-29T03:33:35.317Z,82.90
2018-06-29T03:36:03.726Z,82.80
2018-06-29T03:38:32.122Z,82.70
2018-06-29T03:41:00.557Z,82.70
2018-06-29T03:43:28.985Z,82.80
2018-06-29T03:45:57.436Z,83.60
2018-06-29T03:50:53.968Z,82.10
2018-06-29T03:53:22.373Z,80.30
2018-06-29T03:58:18.936Z,75.10
2018-06-29T04:00:47.330Z,72.30
2018-06-29T04:05:43.996Z,66.70
2018-06-29T04:08:12.472Z,63.90
2018-06-29T04:10:40.905Z,61.30
2018-06-29T04:15:40.299Z,57.70
2018-06-29T04:18:08.758Z,56.30
2018-06-29T04:20:37.354Z,54.80
2018-06-29T04:23:05.855Z,53.30
2018-06-29T04:25:34.259Z,52.20
2018-06-29T04:28:02.675Z,50.70
2018-06-29T04:30:31.077Z,49.50
2018-06-29T04:32:59.488Z,47.70
2018-06-29T04:35:27.953Z,46.20
2018-06-29T04:37:56.371Z,44.80
2018-06-29T04:40:24.762Z,44.50
2018-06-29T04:42:53.222Z,42.80
2018-06-29T04:45:21.601Z,42.50
2018-06-29T04:47:50.006Z,41.50
2018-06-29T04:50:18.410Z,40.50
2018-06-29T04:52:46.797Z,39.60
2018-06-29T04:55:15.158Z,39.20
2018-06-29T04:57:43.537Z,38.90
2018-06-29T05:00:11.943Z,38.10
2018-06-29T05:02:40.391Z,37.80
2018-06-29T05:05:08.792Z,37.80
2018-06-29T05:07:37.179Z,38.00
2018-06-29T05:12:33.771Z,38.20
2018-06-29T05:15:02.164Z,36.90
2018-06-29T05:17:30.588Z,37.30
2018-06-29T05:19:59.001Z,36.50
2018-06-29T05:22:27.379Z,35.90
2018-06-29T05:24:55.802Z,34.80
2018-06-29T05:27:24.216Z,34.50
2018-06-29T05:32:20.751Z,34.70
2018-06-29T05:34:49.232Z,34.00
2018-06-29T05:37:17.703Z,33.40
2018-06-29T05:43:41.853Z,33.80
2018-06-29T05:46:10.332Z,33.60
2018-06-29T05:48:38.733Z,33.70
2018-06-29T05:51:07.137Z,34.50
2018-06-29T05:53:35.590Z,34.70
2018-06-29T05:56:04.016Z,34.90
2018-06-29T05:58:32.535Z,34.90
2018-06-29T06:01:00.938Z,35.40
2018-06-29T06:03:29.366Z,36.30
2018-06-29T06:05:57.737Z,36.80
2018-06-29T06:08:26.127Z,37.40
2018-06-29T06:10:54.524Z,38.80
2018-06-29T06:13:22.927Z,40.60
2018-06-29T06:15:51.323Z,40.60
2018-06-29T06:18:19.717Z,42.20
2018-06-29T06:20:48.105Z,43.20
2018-06-29T06:23:19.479Z,44.00
2018-06-29T06:30:44.843Z,45.70
2018-06-29T06:33:13.381Z,46.40
2018-06-29T06:35:42.067Z,47.20
2018-06-29T06:38:10.649Z,47.40
2018-06-29T06:40:39.025Z,48.40
2018-06-29T06:43:07.522Z,48.80
2018-06-29T06:45:36.077Z,49.50
2018-06-29T06:48:04.513Z,49.60
2018-06-29T06:50:32.929Z,50.60
2018-06-29T06:53:01.315Z,51.00
2018-06-29T06:55:29.893Z,51.20
2018-06-29T06:57:58.293Z,51.40
2018-06-29T07:00:26.723Z,51.70
2018-06-29T07:02:55.108Z,51.20
2018-06-29T07:05:23.485Z,52.10
2018-06-29T07:07:52.051Z,52.20
2018-06-29T07:10:20.436Z,53.70
2018-06-29T07:12:48.863Z,53.00
2018-06-29T07:15:17.271Z,53.40
2018-06-29T07:17:45.694Z,54.00
2018-06-29T07:20:14.164Z,54.10
2018-06-29T07:22:42.623Z,53.80
2018-06-29T07:25:11.111Z,53.40
2018-06-29T07:27:39.499Z,54.00
2018-06-29T07:30:08.754Z,53.90
2018-06-29T07:32:37.182Z,54.50
2018-06-29T07:35:05.733Z,54.50
2018-06-29T07:40:02.287Z,53.50
2018-06-29T07:44:58.775Z,54.20
2018-06-29T07:47:28.012Z,53.80
2018-06-29T07:49:56.382Z,54.00
2018-06-29T07:52:24.776Z,54.20
2018-06-29T07:54:53.139Z,54.70
2018-06-29T07:57:21.734Z,54.40
2018-06-29T07:59:50.122Z,54.80
2018-06-29T08:02:18.530Z,54.60
2018-06-29T08:04:46.902Z,54.70
2018-06-29T08:07:15.305Z,54.20
2018-06-29T08:09:43.679Z,53.30
2018-06-29T08:12:12.083Z,54.10
2018-06-29T08:14:40.444Z,54.50
2018-06-29T08:17:08.847Z,54.20
2018-06-29T08:19:37.228Z,54.50
2018-06-29T08:22:05.584Z,54.90
2018-06-29T08:24:34.028Z,54.90
2018-06-29T08:27:02.428Z,54.60
2018-06-29T08:29:30.851Z,54.20
2018-06-29T08:31:59.269Z,54.50
2018-06-29T08:34:27.630Z,53.70
2018-06-29T08:36:56.084Z,52.50
2018-06-29T08:39:24.479Z,52.60
2018-06-29T08:41:52.927Z,53.40
2018-06-29T08:44:21.284Z,53.40
2018-06-29T08:46:49.739Z,51.80
2018-06-29T08:51:57.841Z,51.90
2018-06-29T08:54:26.277Z,51.70
2018-06-29T08:56:54.718Z,51.70
2018-06-29T08:59:23.111Z,52.20
2018-06-29T09:01:51.452Z,52.70
2018-06-29T09:04:19.878Z,52.80
2018-06-29T09:06:48.262Z,52.60
2018-06-29T09:09:16.668Z,51.30
2018-06-29T09:11:45.085Z,51.10
2018-06-29T09:14:13.483Z,51.60
2018-06-29T09:16:41.903Z,51.10
2018-06-29T09:19:10.670Z,51.00
2018-06-29T09:21:39.020Z,51.10
2018-06-29T09:26:35.596Z,51.00
2018-06-29T09:29:04.050Z,51.50
2018-06-29T09:31:32.459Z,50.00
2018-06-29T09:34:00.910Z,49.90
2018-06-29T09:36:29.381Z,50.90
2018-06-29T09:38:57.787Z,50.50
2018-06-29T09:41:26.214Z,49.00
2018-06-29T09:43:54.577Z,47.80
2018-06-29T09:46:23.040Z,47.80
2018-06-29T09:48:51.396Z,45.90
2018-06-29T09:51:19.812Z,45.10
2018-06-29T09:53:48.156Z,46.20
2018-06-29T09:56:16.573Z,46.60
2018-06-29T09:58:44.940Z,46.70
2018-06-29T10:01:13.389Z,45.80
2018-06-29T10:03:41.836Z,44.80
2018-06-29T10:06:10.231Z,45.30
2018-06-29T10:13:34.868Z,45.50
2018-06-29T10:16:03.297Z,45.20
2018-06-29T10:18:31.710Z,45.20
2018-06-29T10:21:00.159Z,45.90
2018-06-29T10:23:28.581Z,45.80
2018-06-29T10:28:25.045Z,46.10
2018-06-29T10:30:53.485Z,46.40
2018-06-29T10:33:21.890Z,45.50
2018-06-29T10:35:50.335Z,44.90
2018-06-29T10:38:18.720Z,45.70
2018-06-29T10:40:47.197Z,43.30
2018-06-29T10:43:15.570Z,43.40
2018-06-29T10:45:43.984Z,43.10
2018-06-29T10:48:12.384Z,43.20
2018-06-29T10:50:40.807Z,43.70
2018-06-29T10:53:09.188Z,44.00
2018-06-29T10:55:37.609Z,42.80
2018-06-29T10:58:06.013Z,42.40
2018-06-29T11:00:34.429Z,42.20
2018-06-29T11:03:02.831Z,42.20
2018-06-29T11:05:31.276Z,41.80
2018-06-29T11:07:59.680Z,40.30
2018-06-29T11:10:28.081Z,40.80
2018-06-29T11:15:24.525Z,41.40
2018-06-29T11:17:55.954Z,41.50
2018-06-29T11:20:24.370Z,41.30
2018-06-29T11:22:52.798Z,41.20
2018-06-29T11:25:21.252Z,41.30
2018-06-29T11:27:49.642Z,41.40
2018-06-29T11:30:18.209Z,41.30
2018-06-29T11:32:46.573Z,41.20
2018-06-29T11:35:14.943Z,42.10
2018-06-29T11:37:43.360Z,38.90
2018-06-29T11:40:11.764Z,38.60
2018-06-29T11:42:40.303Z,38.60
2018-06-29T11:45:08.662Z,38.90
2018-06-29T11:47:37.121Z,39.20
2018-06-29T11:50:05.799Z,39.30
2018-06-29T11:52:34.494Z,38.50
2018-06-29T11:55:02.869Z,39.10
2018-06-29T11:57:31.323Z,38.50
2018-06-29T11:59:59.670Z,39.60
2018-06-29T12:02:28.120Z,39.70
2018-06-29T12:04:56.545Z,39.70
2018-06-29T12:07:24.940Z,39.50
2018-06-29T12:09:53.383Z,39.20
2018-06-29T12:12:21.853Z,39.50
2018-06-29T12:14:50.363Z,40.10
2018-06-29T12:17:18.711Z,39.60
2018-06-29T12:19:47.155Z,39.30
2018-06-29T12:22:15.565Z,39.40
2018-06-29T12:29:40.260Z,39.80
2018-06-29T12:32:08.680Z,39.10
2018-06-29T12:34:37.113Z,39.20
2018-06-29T12:37:05.518Z,38.70
2018-06-29T12:39:33.989Z,38.80
2018-06-29T12:42:02.405Z,39.00
2018-06-29T12:44:30.817Z,39.00
2018-06-29T12:46:59.225Z,39.10
2018-06-29T12:49:27.643Z,39.00
2018-06-29T12:51:56.432Z,38.90
2018-06-29T12:54:24.459Z,39.50
2018-06-29T12:56:52.917Z,39.50
2018-06-29T12:59:21.322Z,39.70
2018-06-29T13:01:49.714Z,40.20
2018-06-29T13:04:18.137Z,40.10
2018-06-29T13:06:46.578Z,39.80
2018-06-29T13:11:43.175Z,39.50
2018-06-29T13:14:11.651Z,39.70
2018-06-29T13:16:40.056Z,39.70
2018-06-29T13:19:08.558Z,39.70
2018-06-29T13:21:36.961Z,39.00
2018-06-29T13:24:05.453Z,39.00
2018-06-29T13:26:33.864Z,38.70
2018-06-29T13:29:02.247Z,38.70
2018-06-29T13:31:30.656Z,39.30
2018-06-29T13:33:59.088Z,39.50
2018-06-29T13:36:27.518Z,38.90
2018-06-29T13:38:55.935Z,38.70
2018-06-29T13:41:24.353Z,38.10
2018-06-29T13:43:52.839Z,38.40
2018-06-29T13:46:21.233Z,38.20
2018-06-29T13:51:17.726Z,38.70
2018-06-29T13:53:46.104Z,39.20
2018-06-29T13:56:14.867Z,38.90
2018-06-29T13:58:43.277Z,38.70
2018-06-29T14:01:11.690Z,38.80
2018-06-29T14:03:40.131Z,39.00
2018-06-29T14:06:08.715Z,38.00
2018-06-29T14:08:37.135Z,37.70
2018-06-29T14:11:05.506Z,37.70
2018-06-29T14:13:33.908Z,38.60
2018-06-29T14:16:02.331Z,38.00
2018-06-29T14:18:30.739Z,38.30
2018-06-29T14:20:59.122Z,38.40
2018-06-29T14:23:27.559Z,36.90
2018-06-29T14:25:55.958Z,37.10
2018-06-29T14:28:24.365Z,37.90
2018-06-29T14:30:52.759Z,38.40
2018-06-29T14:33:21.220Z,38.50
2018-06-29T14:35:49.629Z,38.40
2018-06-29T14:38:18.037Z,38.70
2018-06-29T14:40:46.431Z,38.70
2018-06-29T14:43:14.831Z,38.70
2018-06-29T14:45:43.332Z,38.40
2018-06-29T14:48:11.728Z,38.90
2018-06-29T14:50:40.121Z,38.90
2018-06-29T14:53:08.549Z,38.80
2018-06-29T14:55:37.012Z,38.70
2018-06-29T14:58:05.770Z,38.90
2018-06-29T15:00:34.328Z,38.90
2018-06-29T15:03:02.749Z,38.60
2018-06-29T15:07:59.239Z,38.30
2018-06-29T15:10:27.659Z,38.10
2018-06-29T15:12:56.042Z,38.30
2018-06-29T15:15:24.487Z,38.20
2018-06-29T15:17:52.891Z,37.60
2018-06-29T15:20:21.265Z,37.50
2018-06-29T15:22:49.639Z,37.60
2018-06-29T15:25:18.218Z,37.40
2018-06-29T15:27:46.609Z,37.80
2018-06-29T15:30:15.021Z,37.70
2018-06-29T15:32:43.455Z,37.20
2018-06-29T15:35:11.912Z,37.00
2018-06-29T15:40:08.448Z,36.50
2018-06-29T15:42:36.845Z,36.40
2018-06-29T15:45:05.632Z,36.10
2018-06-29T15:50:02.138Z,36.50
2018-06-29T15:52:30.545Z,36.10
2018-06-29T15:54:58.904Z,36.00
2018-06-29T15:57:27.371Z,36.20
2018-06-29T15:59:55.785Z,36.10
2018-06-29T16:02:24.168Z,35.80
2018-06-29T16:04:52.959Z,35.20
2018-06-29T16:07:21.368Z,35.20
2018-06-29T16:09:49.799Z,34.70
2018-06-29T16:12:18.272Z,34.40
2018-06-29T16:14:46.616Z,34.40
2018-06-29T16:17:15.214Z,34.30
2018-06-29T16:19:43.568Z,34.60
2018-06-29T16:24:40.132Z,34.30
2018-06-29T16:27:08.580Z,33.90
2018-06-29T16:29:37.044Z,33.90
2018-06-29T16:32:05.437Z,34.20
2018-06-29T16:34:33.820Z,34.40
2018-06-29T16:37:02.259Z,34.70
2018-06-29T16:39:30.610Z,35.10
2018-06-29T16:44:27.129Z,35.70
2018-06-29T16:46:55.558Z,36.00
2018-06-29T16:49:23.947Z,36.20
2018-06-29T16:51:52.340Z,36.50
2018-06-29T16:54:20.700Z,36.60
2018-06-29T16:56:49.107Z,36.30
2018-06-29T16:59:17.490Z,36.30
2018-06-29T17:01:45.910Z,36.50
2018-06-29T17:04:14.324Z,36.60
2018-06-29T17:06:42.844Z,36.80
2018-06-29T17:09:11.223Z,37.00
2018-06-29T17:11:39.612Z,37.20
2018-06-29T17:14:07.987Z,37.30
2018-06-29T17:16:36.442Z,37.30
2018-06-29T17:19:05.064Z,37.40
2018-06-29T17:21:33.470Z,37.60
2018-06-29T17:24:01.923Z,37.80
2018-06-29T17:26:30.275Z,38.30
2018-06-29T17:28:58.838Z,38.40
2018-06-29T17:31:27.176Z,38.00
2018-06-29T17:33:55.599Z,38.20
2018-06-29T17:36:23.995Z,38.20
2018-06-29T17:38:52.477Z,38.40
2018-06-29T17:41:20.965Z,38.80
2018-06-29T17:43:49.372Z,39.00
2018-06-29T17:46:17.751Z,39.30
2018-06-29T17:48:46.164Z,39.70
2018-06-29T17:51:14.561Z,39.90
2018-06-29T17:53:42.987Z,39.70
2018-06-29T17:56:11.370Z,39.40
2018-06-29T17:58:39.782Z,39.80
2018-06-29T18:01:08.359Z,39.90
2018-06-29T18:03:36.743Z,40.30
2018-06-29T18:06:05.351Z,40.80
2018-06-29T18:08:33.760Z,41.60
2018-06-29T18:11:02.142Z,42.30
2018-06-29T18:13:30.531Z,43.20
2018-06-29T18:15:59.001Z,44.00
2018-06-29T18:18:27.348Z,44.30
2018-06-29T18:20:55.789Z,44.80
2018-06-29T18:23:29.444Z,45.10
2018-06-29T18:25:57.827Z,45.40
2018-06-29T18:28:26.564Z,45.80
2018-06-29T18:30:55.006Z,46.20
2018-06-29T18:33:23.396Z,46.70
2018-06-29T18:35:51.812Z,47.20
2018-06-29T18:38:20.197Z,47.90
2018-06-29T18:43:16.755Z,49.40
2018-06-29T18:45:45.160Z,50.00
2018-06-29T18:48:13.557Z,50.80
2018-06-29T18:50:41.988Z,51.40
2018-06-29T18:53:10.401Z,51.90
2018-06-29T18:55:38.955Z,52.60
2018-06-29T18:58:07.427Z,53.10
2018-06-29T19:03:03.981Z,54.20
2018-06-29T19:08:00.455Z,55.10
2018-06-29T19:10:28.865Z,55.70
2018-06-29T19:12:57.240Z,56.20
2018-06-29T19:15:25.722Z,56.60
2018-06-29T19:17:54.142Z,57.10
2018-06-29T19:20:22.705Z,57.50
2018-06-29T19:22:51.102Z,58.00
2018-06-29T19:25:19.473Z,58.20
2018-06-29T19:27:47.924Z,58.60
2018-06-29T19:30:16.349Z,59.40
2018-06-29T19:37:41.002Z,59.80
2018-06-29T19:45:05.700Z,60.70
2018-06-29T19:50:02.277Z,61.40
2018-06-29T19:52:30.685Z,61.70
2018-06-29T19:54:59.072Z,62.10
2018-06-29T19:57:27.465Z,62.40
2018-06-29T19:59:55.846Z,62.80
2018-06-29T20:02:26.195Z,62.90
2018-06-29T20:04:55.967Z,63.80
2018-06-29T20:07:24.548Z,63.30
2018-06-29T20:09:52.978Z,63.70
2018-06-29T20:17:17.889Z,64.40
2018-06-29T20:19:46.607Z,64.50
2018-06-29T20:22:15.036Z,64.60
2018-06-29T20:24:43.431Z,64.90
2018-06-29T20:27:11.859Z,65.10
2018-06-29T20:29:40.269Z,65.40
2018-06-29T20:32:08.656Z,65.60
2018-06-29T20:34:37.076Z,65.70
2018-06-29T20:37:05.470Z,66.00
2018-06-29T20:39:33.862Z,66.10
2018-06-29T20:42:02.355Z,66.40
2018-06-29T20:44:30.758Z,66.50
2018-06-29T20:46:59.142Z,66.80
2018-06-29T20:49:27.570Z,66.90
2018-06-29T20:51:55.980Z,67.10
2018-06-29T20:54:24.366Z,67.30
2018-06-29T20:56:52.732Z,67.40
2018-06-29T20:59:21.089Z,67.50
2018-06-29T21:01:49.502Z,67.60
2018-06-29T21:04:17.903Z,67.70
2018-06-29T21:06:46.343Z,67.80
2018-06-29T21:09:14.749Z,67.80
2018-06-29T21:11:43.337Z,68.00
2018-06-29T21:14:12.231Z,68.10
2018-06-29T21:16:40.677Z,68.10
2018-06-29T21:19:09.120Z,68.20
2018-06-29T21:21:37.575Z,68.10
2018-06-29T21:26:34.066Z,68.00
2018-06-29T21:29:02.416Z,68.10
2018-06-29T21:31:31.280Z,68.10
2018-06-29T21:33:59.625Z,67.80
2018-06-29T21:36:28.032Z,67.60
2018-06-29T21:38:56.605Z,67.30
2018-06-29T21:41:25.012Z,67.20
2018-06-29T21:46:21.564Z,67.20
2018-06-29T21:48:49.971Z,67.20
2018-06-29T21:51:18.377Z,66.90
2018-06-29T21:53:46.773Z,66.80
2018-06-29T21:56:15.189Z,66.60
2018-06-29T21:58:43.616Z,66.60
2018-06-29T22:01:13.020Z,66.30
2018-06-29T22:03:41.524Z,66.50
2018-06-29T22:06:09.934Z,66.30
2018-06-29T22:11:06.451Z,66.20
2018-06-29T22:13:34.894Z,66.00
2018-06-29T22:16:03.277Z,66.00
2018-06-29T22:18:31.664Z,65.80
2018-06-29T22:21:00.167Z,65.80
2018-06-29T22:23:28.608Z,66.00
2018-06-29T22:25:57.076Z,66.00
2018-06-29T22:33:21.684Z,66.30
2018-06-29T22:35:50.090Z,66.50
2018-06-29T22:38:18.553Z,66.70
2018-06-29T22:43:15.145Z,67.10
2018-06-29T22:45:43.572Z,67.20
2018-06-29T22:48:12.009Z,67.40
2018-06-29T22:50:40.431Z,68.20
2018-06-29T22:53:09.028Z,67.80
2018-06-29T22:55:37.590Z,67.90
2018-06-29T22:58:05.996Z,68.10
2018-06-29T23:00:34.402Z,68.20
2018-06-29T23:03:06.478Z,68.40
2018-06-29T23:05:34.999Z,68.60
2018-06-29T23:08:03.520Z,68.90
2018-06-29T23:10:31.933Z,69.10
2018-06-29T23:13:00.300Z,69.40
2018-06-29T23:15:28.753Z,69.60
2018-06-29T23:17:57.324Z,69.90
2018-06-29T23:20:25.883Z,70.00
2018-06-29T23:22:54.380Z,70.40
2018-06-29T23:25:23.479Z,70.60
2018-06-29T23:30:19.982Z,71.10
2018-06-29T23:32:48.423Z,71.30
2018-06-29T23:35:16.875Z,71.60
2018-06-29T23:37:45.359Z,71.80
2018-06-29T23:40:13.827Z,72.60
2018-06-29T23:42:42.221Z,72.50
2018-06-29T23:45:10.672Z,72.80
2018-06-29T23:47:39.065Z,73.10
2018-06-29T23:50:07.488Z,73.40
2018-06-29T23:52:35.861Z,73.70
2018-06-29T23:55:04.319Z,73.90
2018-06-29T23:57:32.732Z,74.30
